Time;durP1;ratioP1;P1;durP2;ratioP2;P2;SDS_P1;SDS_P2;PMS_P1;PMS_P2;Temp;Humidity;BMP_temperature;BMP_pressure;BME280_temperature;BME280_humidity;BME280_pressure;Samples;Min_cycle;Max_cycle;Signal;HPM_P1;HPM_P2
2023/05/10 08:49:38;;;;;;;0.70;0.57;;;15.40;85.40;;;;;;5033412;28;20060;-80
2023/05/10 08:52:05;;;;;;;0.10;0.10;;;14.40;85.60;;;;;;5056570;28;20033;-80
2023/05/10 08:54:33;;;;;;;1.45;0.65;;;14.80;87.70;;;;;;5046749;28;20057;-80
2023/05/10 08:56:58;;;;;;;0.55;0.38;;;15.80;86.40;;;;;;5051465;28;20048;-80
2023/05/10 08:59:24;;;;;;;0.00;0.00;;;16.80;84.00;;;;;;5058774;28;20032;-79
2023/05/10 09:01:51;;;;;;;0.23;0.23;;;18.60;79.10;;;;;;5055688;28;20120;-80
2023/05/10 09:04:16;;;;;;;2.80;0.80;;;19.40;74.80;;;;;;5056686;28;20263;-80
2023/05/10 09:06:42;;;;;;;0.07;0.07;;;23.60;67.90;;;;;;5058725;28;20037;-79
2023/05/10 09:09:08;;;;;;;2.42;1.40;;;26.10;63.30;;;;;;5055243;28;20025;-80
2023/05/10 09:11:34;;;;;;;1.30;0.55;;;26.00;56.30;;;;;;5042519;28;20025;-80
2023/05/10 09:14:02;;;;;;;0.00;0.00;;;24.50;58.00;;;;;;5042565;28;20222;-80
2023/05/10 09:16:28;;;;;;;0.28;0.28;;;22.00;64.20;;;;;;5042916;28;20044;-80
2023/05/10 09:18:54;;;;;;;23.77;1.45;;;21.00;66.00;;;;;;5046801;28;20029;-80
2023/05/10 09:21:20;;;;;;;0.00;0.00;;;19.60;69.80;;;;;;5046691;28;20028;-79
2023/05/10 09:23:47;;;;;;;0.90;0.28;;;18.30;73.30;;;;;;5050796;28;20024;-79
2023/05/10 09:26:12;;;;;;;0.00;0.00;;;17.50;78.10;;;;;;5047647;28;20044;-79
2023/05/10 09:28:52;;;;;;;0.10;0.07;;;18.20;77.90;;;;;;5049687;28;20021;-80
2023/05/10 09:31:18;;;;;;;0.00;0.00;;;20.00;68.10;;;;;;5056742;28;20028;-80
2023/05/10 09:33:48;;;;;;;0.67;0.67;;;21.80;68.70;;;;;;5052987;28;20028;-80
2023/05/10 09:36:15;;;;;;;0.65;0.65;;;20.50;66.20;;;;;;5049255;28;20455;-80
2023/05/10 09:38:48;;;;;;;0.38;0.32;;;19.60;67.40;;;;;;5054154;28;20778;-80
2023/05/10 09:41:24;;;;;;;0.20;0.20;;;17.80;73.20;;;;;;5051003;28;20033;-79
2023/05/10 09:43:54;;;;;;;0.75;0.70;;;19.50;71.10;;;;;;5035876;28;20032;-80
2023/05/10 09:46:20;;;;;;;0.00;0.00;;;22.10;66.40;;;;;;5053371;28;20072;-80
2023/05/10 09:48:47;;;;;;;0.23;0.23;;;23.50;64.50;;;;;;5053430;28;20133;-79
2023/05/10 09:51:23;;;;;;;0.00;0.00;;;23.60;57.70;;;;;;5053228;28;20064;-80
2023/05/10 09:54:08;;;;;;;0.10;0.10;;;21.60;62.50;;;;;;5053129;28;20035;-80
2023/05/10 09:56:35;;;;;;;0.35;0.35;;;24.10;63.30;;;;;;5050769;28;20524;-79
2023/05/10 09:59:05;;;;;;;1.05;0.75;;;25.70;57.10;;;;;;5052646;28;20032;-80
2023/05/10 10:01:31;;;;;;;0.25;0.25;;;25.10;54.70;;;;;;5061584;28;20035;-79
2023/05/10 10:03:58;;;;;;;0.15;0.15;;;24.10;50.90;;;;;;5053329;28;20029;-80
2023/05/10 10:06:24;;;;;;;0.38;0.17;;;26.70;53.00;;;;;;5059335;28;20577;-80
2023/05/10 10:08:50;;;;;;;0.00;0.00;;;25.50;53.90;;;;;;5050080;28;20016;-80
2023/05/10 10:11:16;;;;;;;;;;;22.10;56.90;;;;;;5046422;28;20094;-80
2023/05/10 10:13:42;;;;;;;0.30;0.25;;;20.60;64.50;;;;;;5046788;28;19912;-80
2023/05/10 10:16:08;;;;;;;0.17;0.17;;;19.50;66.10;;;;;;5046649;28;20047;-81
2023/05/10 10:18:38;;;;;;;0.00;0.00;;;23.60;61.00;;;;;;5047497;28;20032;-80
2023/05/10 10:21:06;;;;;;;0.28;0.28;;;21.80;60.60;;;;;;5047012;28;20408;-80
2023/05/10 10:23:32;;;;;;;0.00;0.00;;;24.10;62.30;;;;;;5050318;28;20488;-80
2023/05/10 10:25:59;;;;;;;6.83;1.40;;;26.80;54.20;;;;;;5050194;28;20106;-80
2023/05/10 10:28:51;;;;;;;0.10;0.10;;;26.90;53.40;;;;;;5049132;28;20771;-80
2023/05/10 10:31:52;;;;;;;0.05;0.05;;;24.60;55.70;;;;;;5054975;28;20559;-81
2023/05/10 10:34:28;;;;;;;0.17;0.17;;;22.00;54.90;;;;;;5030782;28;20033;-80
2023/05/10 10:36:56;;;;;;;0.47;0.35;;;21.60;59.20;;;;;;5053588;28;20036;-80
2023/05/10 10:39:22;;;;;;;1.17;0.35;;;20.80;64.00;;;;;;5048576;28;20021;-80
2023/05/10 10:41:52;;;;;;;0.00;0.00;;;20.60;64.80;;;;;;5053854;28;20878;-80
2023/05/10 10:44:36;;;;;;;0.00;0.00;;;21.30;65.00;;;;;;5048849;28;20028;-80
2023/05/10 10:47:11;;;;;;;0.38;0.38;;;20.90;62.90;;;;;;5049948;28;20029;-80
2023/05/10 10:49:43;;;;;;;0.20;0.20;;;20.50;63.50;;;;;;5033975;28;20133;-80
2023/05/10 10:52:31;;;;;;;0.10;0.10;;;20.90;61.30;;;;;;5053472;28;20028;-79
2023/05/10 10:55:05;;;;;;;0.00;0.00;;;20.60;60.20;;;;;;5056912;28;20143;-80
2023/05/10 10:58:00;;;;;;;0.70;0.68;;;21.20;63.50;;;;;;5067300;28;20048;-80
2023/05/10 11:00:33;;;;;;;1.33;1.23;;;20.60;62.90;;;;;;5055870;28;20771;-79
2023/05/10 11:02:59;;;;;;;0.28;0.28;;;20.60;65.30;;;;;;5058218;28;20349;-80
2023/05/10 11:05:32;;;;;;;0.00;0.00;;;19.60;64.70;;;;;;5064671;28;20021;-79
2023/05/10 11:07:59;;;;;;;0.90;0.80;;;19.00;62.20;;;;;;5050668;28;20052;-80
2023/05/10 11:10:26;;;;;;;0.43;0.32;;;18.60;62.00;;;;;;5043605;28;20025;-79
2023/05/10 11:13:09;;;;;;;0.13;0.13;;;18.60;62.10;;;;;;5043074;28;20516;-79
2023/05/10 11:15:40;;;;;;;0.00;0.00;;;19.10;66.50;;;;;;5044889;28;20028;-79
2023/05/10 11:18:28;;;;;;;0.65;0.57;;;18.80;59.40;;;;;;5044157;28;20021;-79
2023/05/10 11:20:59;;;;;;;0.30;0.30;;;18.60;60.60;;;;;;5026582;28;20040;-79
2023/05/10 11:23:31;;;;;;;0.35;0.35;;;19.40;63.60;;;;;;5044707;28;20025;-79
2023/05/10 11:25:56;;;;;;;0.20;0.20;;;19.60;65.30;;;;;;5045034;28;20064;-79
2023/05/10 11:28:22;;;;;;;1.50;0.43;;;19.90;63.40;;;;;;5045915;28;20527;-80
2023/05/10 11:30:48;;;;;;;0.00;0.00;;;19.50;64.80;;;;;;5051641;28;20090;-80
2023/05/10 11:33:19;;;;;;;0.10;0.10;;;18.40;59.20;;;;;;5054750;28;20439;-80
2023/05/10 11:35:45;;;;;;;0.20;0.20;;;18.50;62.10;;;;;;5046720;28;20020;-80
2023/05/10 11:38:12;;;;;;;0.88;0.80;;;18.60;63.50;;;;;;5047138;28;20013;-80
2023/05/10 11:40:39;;;;;;;0.20;0.20;;;17.70;70.50;;;;;;5047323;28;20036;-80
2023/05/10 11:43:08;;;;;;;0.00;0.00;;;17.50;74.60;;;;;;5048695;28;20013;-80
2023/05/10 11:45:34;;;;;;;3.35;1.95;;;17.50;77.20;;;;;;5049273;28;20036;-80
2023/05/10 11:48:01;;;;;;;0.52;0.52;;;17.50;73.00;;;;;;5049885;28;20147;-80
2023/05/10 11:50:27;;;;;;;;;;;17.80;77.20;;;;;;5049976;28;20048;-80
2023/05/10 11:52:55;;;;;;;0.73;0.63;;;17.70;71.30;;;;;;5049808;28;19913;-80
2023/05/10 11:55:21;;;;;;;0.65;0.65;;;18.10;74.80;;;;;;5049701;28;20037;-80
2023/05/10 11:57:47;;;;;;;0.10;0.10;;;18.70;73.20;;;;;;5052324;28;20403;-80
2023/05/10 12:00:14;;;;;;;0.28;0.28;;;19.20;73.90;;;;;;5051581;28;20270;-80
2023/05/10 12:02:40;;;;;;;0.22;0.22;;;18.90;72.00;;;;;;5051675;28;20057;-80
2023/05/10 12:05:07;;;;;;;0.00;0.00;;;18.70;67.70;;;;;;5059683;28;20036;-80
2023/05/10 12:07:32;;;;;;;0.10;0.10;;;18.60;65.40;;;;;;5059309;28;20021;-80
2023/05/10 12:10:08;;;;;;;0.10;0.10;;;18.50;65.70;;;;;;5042295;28;20051;-80
2023/05/10 12:12:38;;;;;;;5.05;0.82;;;18.40;64.10;;;;;;5042966;28;20636;-80
2023/05/10 12:15:06;;;;;;;0.10;0.10;;;18.80;62.20;;;;;;5042642;28;20028;-80
2023/05/10 12:17:32;;;;;;;0.20;0.20;;;19.00;61.70;;;;;;5044441;28;20047;-80
2023/05/10 12:20:22;;;;;;;0.00;0.00;;;19.00;61.20;;;;;;5043188;28;20021;-81
2023/05/10 12:22:51;;;;;;;1.13;0.25;;;19.50;62.70;;;;;;5043966;28;20268;-81
2023/05/10 12:25:18;;;;;;;0.00;0.00;;;19.50;61.00;;;;;;5046021;28;20129;-80
2023/05/10 12:27:52;;;;;;;0.10;0.10;;;19.70;59.80;;;;;;5044463;28;20037;-80
2023/05/10 12:30:28;;;;;;;0.10;0.10;;;19.30;58.50;;;;;;5048539;28;20025;-80
2023/05/10 12:32:58;;;;;;;;;;;19.50;61.70;;;;;;5053801;28;20025;-80
2023/05/10 12:35:24;;;;;;;0.10;0.10;;;19.90;57.80;;;;;;5049773;28;19909;-80
2023/05/10 12:37:53;;;;;;;0.37;0.30;;;20.20;58.70;;;;;;5050782;28;20061;-80
2023/05/10 12:40:19;;;;;;;0.70;0.45;;;19.80;57.70;;;;;;5055069;28;20029;-80
2023/05/10 12:42:45;;;;;;;0.68;0.52;;;19.70;58.00;;;;;;5047808;28;20033;-80
2023/05/10 12:45:12;;;;;;;0.00;0.00;;;19.00;57.20;;;;;;5052718;28;20082;-80
2023/05/10 12:47:38;;;;;;;0.45;0.45;;;19.10;57.90;;;;;;5049297;28;20039;-80
2023/05/10 12:50:05;;;;;;;0.17;0.17;;;18.90;57.90;;;;;;5053422;28;20048;-80
2023/05/10 12:52:31;;;;;;;;;;;18.60;58.20;;;;;;5053287;28;20040;-80
2023/05/10 12:54:58;;;;;;;0.00;0.00;;;18.60;59.20;;;;;;5058345;28;19918;-80
2023/05/10 12:57:24;;;;;;;1.65;0.75;;;19.20;60.10;;;;;;5054328;28;20059;-80
2023/05/10 12:59:49;;;;;;;0.20;0.20;;;19.30;57.40;;;;;;5067111;28;20566;-80
2023/05/10 13:02:17;;;;;;;3.30;0.80;;;19.70;59.40;;;;;;5056759;28;20029;-80
2023/05/10 13:04:43;;;;;;;0.30;0.30;;;19.80;61.10;;;;;;5059435;28;20024;-80
2023/05/10 13:07:09;;;;;;;0.00;0.00;;;19.90;61.00;;;;;;5058198;28;20020;-80
2023/05/10 13:09:35;;;;;;;0.00;0.00;;;19.90;62.60;;;;;;5045004;28;20039;-80
2023/05/10 13:12:01;;;;;;;0.07;0.07;;;19.50;61.20;;;;;;5045201;28;20025;-80
2023/05/10 13:14:27;;;;;;;0.68;0.63;;;19.30;63.50;;;;;;5045859;28;20274;-80
2023/05/10 13:16:53;;;;;;;0.10;0.10;;;19.20;65.60;;;;;;5047618;28;20041;-80
2023/05/10 13:19:19;;;;;;;0.85;0.85;;;19.00;67.70;;;;;;5046986;28;20028;-80
2023/05/10 13:21:45;;;;;;;0.00;0.00;;;18.80;66.90;;;;;;5047102;28;20033;-80
2023/05/10 13:24:13;;;;;;;0.00;0.00;;;19.00;66.60;;;;;;5058272;28;20035;-80
2023/05/10 13:26:40;;;;;;;0.52;0.32;;;19.20;64.80;;;;;;5047694;28;20132;-80
2023/05/10 13:29:05;;;;;;;1.08;0.38;;;19.50;64.30;;;;;;5049701;28;20017;-80
2023/05/10 13:31:31;;;;;;;0.07;0.07;;;19.70;64.70;;;;;;5058467;28;20035;-80
2023/05/10 13:33:57;;;;;;;0.00;0.00;;;19.40;64.80;;;;;;5051330;28;20400;-80
2023/05/10 13:36:22;;;;;;;0.00;0.00;;;19.40;65.00;;;;;;5049261;28;20547;-80
2023/05/10 13:38:48;;;;;;;2.07;0.37;;;19.00;66.20;;;;;;5052903;28;20071;-80
2023/05/10 13:41:14;;;;;;;0.60;0.60;;;18.10;66.80;;;;;;5049910;28;20033;-80
2023/05/10 13:43:40;;;;;;;0.00;0.00;;;17.90;65.00;;;;;;5054285;28;20032;-79
2023/05/10 13:46:05;;;;;;;0.73;0.53;;;18.00;67.80;;;;;;5050282;28;20526;-80
2023/05/10 13:48:31;;;;;;;0.00;0.00;;;17.90;68.30;;;;;;5055516;28;20027;-79
2023/05/10 13:50:57;;;;;;;2.33;0.83;;;17.70;65.40;;;;;;5050645;28;20057;-80
2023/05/10 13:53:22;;;;;;;0.00;0.00;;;17.50;70.00;;;;;;5057010;28;20028;-80
2023/05/10 13:55:48;;;;;;;0.27;0.27;;;17.80;68.20;;;;;;5052015;28;20033;-79
2023/05/10 13:58:14;;;;;;;5.70;1.40;;;17.10;69.20;;;;;;5062992;28;20063;-79
2023/05/10 14:00:40;;;;;;;0.00;0.00;;;16.90;70.20;;;;;;5057739;28;20024;-80
2023/05/10 14:03:06;;;;;;;0.00;0.00;;;16.90;71.60;;;;;;5058765;28;20027;-80
2023/05/10 14:05:32;;;;;;;0.00;0.00;;;17.10;70.40;;;;;;5054997;28;20052;-80
2023/05/10 14:07:58;;;;;;;0.17;0.10;;;17.50;68.60;;;;;;5056912;28;20896;-79
2023/05/10 14:10:23;;;;;;;0.30;0.30;;;17.20;70.30;;;;;;5045452;28;20028;-79
2023/05/10 14:12:50;;;;;;;0.00;0.00;;;17.20;68.70;;;;;;5045261;28;20028;-80
2023/05/10 14:15:16;;;;;;;0.00;0.00;;;16.80;71.40;;;;;;5045611;28;20405;-79
2023/05/10 14:17:41;;;;;;;0.00;0.00;;;16.80;71.30;;;;;;5046402;28;20098;-79
2023/05/10 14:20:08;;;;;;;0.00;0.00;;;16.90;71.30;;;;;;5047180;28;20733;-80
2023/05/10 14:22:34;;;;;;;0.35;0.35;;;17.00;72.90;;;;;;5047234;28;20025;-80
2023/05/10 14:25:00;;;;;;;0.00;0.00;;;17.00;72.90;;;;;;5048155;28;21741;-80
2023/05/10 14:27:26;;;;;;;0.32;0.32;;;17.10;72.70;;;;;;5030748;28;20593;-80
2023/05/10 14:29:53;;;;;;;0.00;0.00;;;17.20;72.90;;;;;;5049924;28;20101;-80
2023/05/10 14:32:18;;;;;;;0.00;0.00;;;17.30;73.10;;;;;;5057058;28;20020;-79
2023/05/10 14:34:44;;;;;;;0.57;0.57;;;16.90;70.30;;;;;;5049085;28;20621;-80
2023/05/10 14:37:11;;;;;;;0.33;0.33;;;16.60;68.30;;;;;;5051007;28;20036;-80
2023/05/10 14:39:37;;;;;;;;;;;16.70;71.00;;;;;;5049968;28;20028;-80
2023/05/10 14:42:03;;;;;;;0.28;0.28;;;16.50;69.50;;;;;;5052763;28;19912;-79
2023/05/10 14:44:29;;;;;;;0.10;0.10;;;16.60;69.10;;;;;;5032096;28;20118;-80
2023/05/10 14:46:55;;;;;;;0.20;0.20;;;16.50;66.80;;;;;;5053958;28;20085;-80
2023/05/10 14:49:22;;;;;;;0.32;0.32;;;16.30;68.00;;;;;;5057105;28;20773;-80
2023/05/10 14:51:48;;;;;;;2.95;0.57;;;16.60;67.90;;;;;;5054179;28;20474;-79
2023/05/10 14:54:14;;;;;;;0.00;0.00;;;16.50;68.20;;;;;;5051305;28;20648;-80
2023/05/10 14:56:41;;;;;;;0.47;0.40;;;16.60;67.70;;;;;;5056944;28;20291;-80
2023/05/10 14:59:07;;;;;;;0.03;0.03;;;16.40;65.80;;;;;;5053059;28;20025;-80
2023/05/10 15:01:37;;;;;;;0.00;0.00;;;16.50;68.20;;;;;;5060178;28;20034;-79
2023/05/10 15:04:03;;;;;;;0.00;0.00;;;16.30;67.90;;;;;;5053758;28;20029;-80
2023/05/10 15:06:33;;;;;;;0.08;0.08;;;16.70;69.20;;;;;;5058775;28;20106;-79
2023/05/10 15:09:00;;;;;;;0.10;0.10;;;17.10;69.00;;;;;;5046690;28;20610;-80
2023/05/10 15:11:26;;;;;;;0.00;0.00;;;17.40;66.40;;;;;;5043184;28;20025;-80
2023/05/10 15:13:51;;;;;;;0.00;0.00;;;17.00;65.60;;;;;;5025317;28;20021;-80
2023/05/10 15:16:17;;;;;;;0.00;0.00;;;17.00;66.50;;;;;;5044003;28;20493;-80
2023/05/10 15:18:43;;;;;;;0.53;0.53;;;17.00;67.00;;;;;;5045166;28;20021;-80
2023/05/10 15:21:09;;;;;;;0.00;0.00;;;17.10;65.80;;;;;;5044514;28;20084;-80
2023/05/10 15:23:35;;;;;;;0.10;0.10;;;17.20;65.60;;;;;;5046750;28;20400;-79
2023/05/10 15:26:02;;;;;;;0.10;0.10;;;17.30;67.20;;;;;;5045634;28;20029;-79
2023/05/10 15:28:28;;;;;;;0.00;0.00;;;17.10;67.30;;;;;;5047664;28;20025;-79
2023/05/10 15:30:54;;;;;;;0.10;0.10;;;17.30;66.60;;;;;;5051608;28;20101;-80
2023/05/10 15:33:20;;;;;;;0.00;0.00;;;17.40;66.10;;;;;;5052728;28;20025;-79
2023/05/10 15:35:45;;;;;;;0.00;0.00;;;17.50;67.10;;;;;;5047486;28;20722;-79
2023/05/10 15:38:11;;;;;;;2.80;0.97;;;17.00;65.70;;;;;;5051510;28;20716;-79
2023/05/10 15:40:37;;;;;;;0.00;0.00;;;16.80;69.10;;;;;;5051050;28;20498;-79
2023/05/10 15:43:03;;;;;;;0.00;0.00;;;17.10;69.00;;;;;;5049387;28;21601;-79
2023/05/10 15:45:28;;;;;;;0.10;0.10;;;16.80;69.20;;;;;;5050564;28;20104;-80
2023/05/10 15:47:54;;;;;;;0.20;0.20;;;16.50;67.90;;;;;;5048033;28;20138;-79
2023/05/10 15:50:20;;;;;;;0.20;0.20;;;16.30;69.10;;;;;;5050055;28;20154;-83
2023/05/10 15:52:46;;;;;;;0.07;0.07;;;16.30;69.30;;;;;;5028757;28;20470;-80
2023/05/10 15:55:12;;;;;;;0.00;0.00;;;16.30;68.90;;;;;;5046190;28;20039;-79
2023/05/10 15:57:39;;;;;;;0.00;0.00;;;16.30;70.60;;;;;;5050958;28;20041;-80
2023/05/10 16:00:06;;;;;;;0.00;0.00;;;16.10;72.20;;;;;;5046551;28;20109;-81
2023/05/10 16:02:32;;;;;;;0.47;0.43;;;16.20;70.80;;;;;;5047540;28;20025;-80
2023/05/10 16:04:58;;;;;;;0.00;0.00;;;16.30;72.20;;;;;;5051516;28;20043;-79
2023/05/10 16:07:23;;;;;;;0.00;0.00;;;16.40;71.80;;;;;;5050472;28;20099;-80
2023/05/10 16:09:49;;;;;;;0.77;0.40;;;16.50;70.90;;;;;;5056619;28;20200;-81
2023/05/10 16:12:15;;;;;;;0.00;0.00;;;16.30;72.60;;;;;;5048697;28;20042;-80
2023/05/10 16:14:40;;;;;;;0.00;0.00;;;16.20;70.70;;;;;;5058786;28;20025;-80
2023/05/10 16:17:06;;;;;;;0.00;0.00;;;16.20;70.00;;;;;;5034048;28;20040;-80
2023/05/10 16:19:32;;;;;;;0.00;0.00;;;16.00;70.60;;;;;;5043696;28;20025;-80
2023/05/10 16:21:58;;;;;;;0.00;0.00;;;15.80;72.60;;;;;;5052090;28;20404;-81
2023/05/10 16:24:24;;;;;;;0.03;0.03;;;15.30;73.60;;;;;;5044870;28;20033;-80
2023/05/10 16:26:50;;;;;;;1.05;0.28;;;15.10;77.30;;;;;;5058407;28;20044;-81
2023/05/10 16:29:16;;;;;;;0.00;0.00;;;15.30;78.20;;;;;;5055781;28;20036;-81
2023/05/10 16:31:42;;;;;;;5.00;0.83;;;15.00;79.00;;;;;;5041421;28;20027;-81
2023/05/10 16:34:07;;;;;;;0.00;0.00;;;15.00;76.70;;;;;;5058343;28;20100;-81
2023/05/10 16:36:34;;;;;;;0.10;0.10;;;15.00;78.50;;;;;;5047524;28;20174;-80
2023/05/10 16:39:00;;;;;;;0.00;0.00;;;15.00;76.70;;;;;;5046509;28;20582;-81
2023/05/10 16:41:25;;;;;;;0.10;0.10;;;15.00;77.00;;;;;;5049259;28;20049;-80
2023/05/10 16:43:51;;;;;;;0.00;0.00;;;14.70;76.50;;;;;;5047184;28;20170;-80
2023/05/10 16:46:17;;;;;;;0.13;0.13;;;14.80;76.80;;;;;;5048911;28;20049;-80
2023/05/10 16:48:43;;;;;;;0.00;0.00;;;14.90;77.80;;;;;;5056991;28;20036;-80
2023/05/10 16:51:08;;;;;;;0.10;0.10;;;15.00;77.00;;;;;;5035175;28;20051;-79
2023/05/10 16:53:35;;;;;;;0.00;0.00;;;14.80;77.30;;;;;;5054823;28;20037;-80
2023/05/10 16:56:00;;;;;;;0.17;0.17;;;14.90;77.10;;;;;;5049407;28;20036;-80
2023/05/10 16:58:26;;;;;;;0.20;0.20;;;15.10;76.60;;;;;;5051654;28;20575;-81
2023/05/10 17:00:52;;;;;;;0.00;0.00;;;15.20;76.40;;;;;;5051862;28;20021;-80
2023/05/10 17:03:17;;;;;;;0.00;0.00;;;15.30;73.80;;;;;;5061085;28;20025;-80
2023/05/10 17:05:43;;;;;;;0.20;0.20;;;15.40;75.30;;;;;;5067048;28;20130;-80
2023/05/10 17:08:09;;;;;;;0.10;0.10;;;15.40;75.00;;;;;;5053516;28;20036;-79
2023/05/10 17:10:38;;;;;;;0.00;0.00;;;15.40;73.50;;;;;;5059657;28;20056;-81
2023/05/10 17:13:03;;;;;;;0.40;0.40;;;15.40;73.70;;;;;;5050766;28;20123;-80
2023/05/10 17:15:29;;;;;;;0.00;0.00;;;15.60;74.70;;;;;;5056191;28;20035;-79
2023/05/10 17:17:55;;;;;;;0.10;0.10;;;15.40;74.50;;;;;;5053616;28;20089;-80
2023/05/10 17:20:21;;;;;;;0.00;0.00;;;15.60;75.50;;;;;;5044636;28;20504;-80
2023/05/10 17:22:47;;;;;;;0.00;0.00;;;15.70;75.30;;;;;;5046243;28;20040;-80
2023/05/10 17:25:13;;;;;;;0.00;0.00;;;15.70;76.10;;;;;;5045404;28;20496;-80
2023/05/10 17:27:38;;;;;;;0.00;0.00;;;15.70;76.50;;;;;;5046004;28;20028;-81
2023/05/10 17:30:05;;;;;;;0.60;0.50;;;15.60;77.00;;;;;;5048963;28;20029;-80
2023/05/10 17:32:31;;;;;;;0.70;0.63;;;15.50;77.60;;;;;;5053076;28;20098;-81
2023/05/10 17:34:57;;;;;;;0.20;0.20;;;15.50;77.50;;;;;;5056278;28;20112;-81
2023/05/10 17:37:22;;;;;;;0.00;0.00;;;15.40;78.00;;;;;;5044487;28;20510;-81
2023/05/10 17:39:48;;;;;;;0.00;0.00;;;15.10;79.30;;;;;;5047601;28;20521;-81
2023/05/10 17:42:16;;;;;;;0.00;0.00;;;15.30;79.00;;;;;;5047071;28;20052;-81
2023/05/10 17:44:42;;;;;;;0.70;0.55;;;15.00;81.50;;;;;;5048046;28;20059;-81
2023/05/10 17:47:08;;;;;;;0.28;0.25;;;14.40;86.20;;;;;;5047199;28;20569;-81
2023/05/10 17:49:34;;;;;;;0.10;0.10;;;14.00;81.50;;;;;;5048780;28;20053;-80
2023/05/10 17:51:59;;;;;;;0.13;0.13;;;13.80;80.70;;;;;;5048125;28;20029;-80
2023/05/10 17:54:25;;;;;;;0.10;0.10;;;13.40;82.40;;;;;;5049921;28;20051;-80
2023/05/10 17:56:51;;;;;;;0.00;0.00;;;13.30;86.30;;;;;;5051971;28;20915;-80
2023/05/10 17:59:16;;;;;;;0.00;0.00;;;13.30;85.40;;;;;;5055825;28;20048;-80
2023/05/10 18:01:42;;;;;;;0.00;0.00;;;13.30;86.10;;;;;;5053085;28;20052;-79
2023/05/10 18:04:08;;;;;;;0.00;0.00;;;13.30;86.50;;;;;;5056177;28;20036;-80
2023/05/10 18:06:37;;;;;;;0.10;0.10;;;13.20;88.30;;;;;;5058280;28;20025;-80
2023/05/10 18:09:06;;;;;;;0.00;0.00;;;13.20;87.40;;;;;;5051711;28;20029;-78
2023/05/10 18:11:33;;;;;;;0.10;0.10;;;12.80;89.20;;;;;;5047382;28;20021;-81
2023/05/10 18:13:59;;;;;;;0.08;0.08;;;12.90;88.20;;;;;;5054852;28;20028;-80
2023/05/10 18:16:24;;;;;;;0.00;0.00;;;13.00;86.50;;;;;;5044984;28;20648;-80
2023/05/10 18:18:50;;;;;;;0.00;0.00;;;13.00;86.30;;;;;;5044942;28;20108;-80
2023/05/10 18:21:16;;;;;;;0.20;0.20;;;13.20;86.10;;;;;;5044833;28;20415;-80
2023/05/10 18:23:42;;;;;;;0.00;0.00;;;13.30;86.10;;;;;;5045482;28;20025;-80
2023/05/10 18:26:08;;;;;;;1.63;0.63;;;13.10;86.30;;;;;;5046733;28;20417;-80
2023/05/10 18:28:33;;;;;;;0.22;0.22;;;13.20;86.30;;;;;;5048508;28;20025;-80
2023/05/10 18:30:59;;;;;;;0.10;0.10;;;13.20;86.40;;;;;;5052876;28;20506;-81
2023/05/10 18:33:25;;;;;;;0.10;0.10;;;13.40;84.90;;;;;;5049771;28;20029;-81
2023/05/10 18:35:51;;;;;;;0.10;0.10;;;13.40;85.40;;;;;;5046163;28;20036;-82
2023/05/10 18:38:17;;;;;;;0.40;0.40;;;13.40;85.20;;;;;;5059557;28;20382;-82
2023/05/10 18:40:42;;;;;;;5.00;1.60;;;13.20;87.30;;;;;;5058328;28;20028;-82
2023/05/10 18:43:08;;;;;;;1.00;0.73;;;13.00;90.00;;;;;;5050184;28;20494;-81
2023/05/10 18:45:34;;;;;;;0.25;0.25;;;12.80;91.40;;;;;;5048138;28;20095;-81
2023/05/10 18:47:59;;;;;;;0.03;0.03;;;12.70;91.70;;;;;;5052452;28;20900;-80
2023/05/10 18:50:25;;;;;;;0.40;0.40;;;12.80;91.90;;;;;;5061195;28;20059;-80
2023/05/10 18:52:51;;;;;;;0.35;0.35;;;12.70;91.50;;;;;;5058048;28;20029;-81
2023/05/10 18:55:17;;;;;;;0.10;0.10;;;12.60;92.40;;;;;;5060677;28;20086;-81
2023/05/10 18:57:43;;;;;;;1.00;0.70;;;12.70;92.10;;;;;;5054608;28;20044;-81
2023/05/10 19:00:11;;;;;;;;;;;12.70;92.00;;;;;;5045649;28;20029;-80
2023/05/10 19:02:37;;;;;;;1.98;0.63;;;12.70;91.90;;;;;;5062152;28;19908;-80
2023/05/10 19:05:03;;;;;;;0.25;0.25;;;12.70;91.90;;;;;;5055954;28;20025;-81
2023/05/10 19:07:29;;;;;;;0.08;0.08;;;12.70;92.00;;;;;;5034911;28;20108;-81
2023/05/10 19:09:55;;;;;;;0.83;0.57;;;12.70;91.70;;;;;;5049888;28;20063;-80
2023/05/10 19:12:21;;;;;;;0.00;0.00;;;12.80;91.80;;;;;;5045861;28;20025;-81
2023/05/10 19:14:46;;;;;;;0.17;0.17;;;12.70;92.00;;;;;;5053546;28;20036;-83
2023/05/10 19:17:12;;;;;;;0.35;0.35;;;12.70;92.10;;;;;;5046337;28;20220;-80
2023/05/10 19:19:38;;;;;;;0.57;0.53;;;12.70;92.20;;;;;;5056201;28;20162;-80
2023/05/10 19:22:03;;;;;;;0.10;0.10;;;12.60;92.10;;;;;;5044393;28;20203;-78
2023/05/10 19:24:29;;;;;;;0.20;0.20;;;12.60;92.30;;;;;;5047028;28;20476;-80
2023/05/10 19:26:56;;;;;;;0.00;0.00;;;12.60;92.50;;;;;;5030566;28;20033;-78
2023/05/10 19:29:22;;;;;;;1.55;1.45;;;12.50;92.60;;;;;;5055345;28;20089;-78
2023/05/10 19:31:48;;;;;;;0.22;0.22;;;12.50;92.70;;;;;;5058611;28;20032;-79
2023/05/10 19:34:14;;;;;;;0.43;0.43;;;12.40;92.50;;;;;;5043664;28;20040;-82
2023/05/10 19:36:40;;;;;;;0.30;0.30;;;12.40;93.00;;;;;;5051063;28;20029;-78
2023/05/10 19:39:06;;;;;;;0.17;0.17;;;12.30;92.90;;;;;;5045249;28;20098;-82
2023/05/10 19:41:31;;;;;;;0.38;0.38;;;12.30;93.00;;;;;;5059259;28;20086;-81
2023/05/10 19:43:57;;;;;;;3.73;1.50;;;12.30;93.20;;;;;;5032388;28;20441;-78
2023/05/10 19:46:22;;;;;;;0.23;0.23;;;12.30;93.10;;;;;;5028179;28;20037;-77
2023/05/10 19:48:48;;;;;;;0.43;0.43;;;12.40;93.50;;;;;;5044191;28;20039;-79
2023/05/10 19:51:14;;;;;;;0.10;0.10;;;12.40;93.50;;;;;;5050637;28;20124;-79
2023/05/10 19:53:43;;;;;;;0.10;0.10;;;12.40;93.40;;;;;;5026504;28;20106;-79
2023/05/10 19:56:09;;;;;;;0.47;0.32;;;12.60;93.30;;;;;;5055909;28;20115;-78
2023/05/10 19:58:35;;;;;;;1.20;0.63;;;12.50;93.00;;;;;;5054020;28;20040;-78
2023/05/10 20:01:02;;;;;;;0.07;0.07;;;12.60;92.90;;;;;;5052687;28;20032;-81
2023/05/10 20:03:28;;;;;;;0.47;0.47;;;12.70;92.60;;;;;;5029063;28;20025;-79
2023/05/10 20:05:54;;;;;;;0.77;0.47;;;12.40;92.70;;;;;;5055291;28;20039;-83
2023/05/10 20:08:35;;;;;;;0.30;0.30;;;12.30;92.80;;;;;;5032617;28;20024;-80
2023/05/10 20:11:03;;;;;;;0.30;0.30;;;12.30;92.80;;;;;;5057394;28;20031;-81
2023/05/10 20:13:34;;;;;;;0.43;0.15;;;12.10;93.30;;;;;;5049520;28;20021;-84
2023/05/10 20:16:05;;;;;;;0.90;0.90;;;12.20;93.30;;;;;;5030692;28;20032;-81
2023/05/10 20:18:31;;;;;;;0.00;0.00;;;12.30;93.80;;;;;;5053831;28;20606;-82
2023/05/10 20:20:58;;;;;;;0.10;0.10;;;12.30;93.70;;;;;;5042093;28;20028;-83
2023/05/10 20:23:24;;;;;;;0.45;0.45;;;12.50;93.30;;;;;;5059476;28;20016;-79
2023/05/10 20:25:50;;;;;;;0.10;0.10;;;12.20;93.80;;;;;;5049941;28;20082;-79
2023/05/10 20:28:24;;;;;;;0.20;0.20;;;12.50;93.50;;;;;;5051950;28;20495;-79
2023/05/10 20:30:52;;;;;;;1.45;0.75;;;12.30;93.80;;;;;;5053148;28;20104;-80
2023/05/10 20:33:18;;;;;;;0.60;0.38;;;12.40;93.70;;;;;;5053834;28;20036;-80
2023/05/10 20:35:44;;;;;;;0.20;0.20;;;12.20;94.00;;;;;;5053511;28;20749;-79
2023/05/10 20:38:09;;;;;;;0.20;0.20;;;12.10;94.20;;;;;;5056531;28;20119;-81
2023/05/10 20:40:35;;;;;;;0.03;0.03;;;12.10;94.40;;;;;;5038191;28;20044;-79
2023/05/10 20:43:01;;;;;;;0.17;0.17;;;12.10;94.60;;;;;;5055963;28;20025;-79
2023/05/10 20:45:27;;;;;;;0.00;0.00;;;12.10;94.40;;;;;;5036662;28;20086;-81
2023/05/10 20:47:53;;;;;;;0.10;0.10;;;12.30;94.40;;;;;;5056811;28;20267;-78
2023/05/10 20:50:18;;;;;;;0.00;0.00;;;12.30;94.50;;;;;;5055577;28;20135;-80
2023/05/10 20:52:44;;;;;;;0.10;0.10;;;12.30;94.80;;;;;;5049208;28;20083;-80
2023/05/10 20:55:10;;;;;;;0.10;0.10;;;12.30;94.70;;;;;;5050537;28;20407;-78
2023/05/10 20:57:35;;;;;;;0.10;0.10;;;12.50;94.60;;;;;;5032167;28;20037;-78
2023/05/10 21:00:02;;;;;;;0.10;0.10;;;12.40;94.90;;;;;;5052932;28;20103;-80
2023/05/10 21:02:27;;;;;;;0.20;0.20;;;12.40;95.00;;;;;;5053898;28;20131;-80
2023/05/10 21:04:53;;;;;;;0.35;0.35;;;12.50;95.10;;;;;;5054663;28;20475;-80
2023/05/10 21:07:19;;;;;;;0.20;0.20;;;12.60;95.20;;;;;;5049096;28;20028;-79
2023/05/10 21:09:44;;;;;;;0.05;0.05;;;12.50;95.30;;;;;;5055949;28;20029;-79
2023/05/10 21:12:10;;;;;;;5.80;2.53;;;12.50;95.20;;;;;;5059169;28;20027;-80
2023/05/10 21:14:36;;;;;;;0.00;0.00;;;12.50;95.30;;;;;;5063141;28;20721;-80
2023/05/10 21:17:01;;;;;;;0.10;0.10;;;12.30;95.60;;;;;;5047740;28;20068;-82
2023/05/10 21:19:27;;;;;;;0.47;0.47;;;12.20;95.60;;;;;;5048451;28;20056;-81
2023/05/10 21:21:54;;;;;;;2.33;0.57;;;12.20;96.10;;;;;;5050673;28;20108;-79
2023/05/10 21:24:21;;;;;;;0.52;0.40;;;12.20;96.00;;;;;;5058616;28;20048;-80
2023/05/10 21:26:46;;;;;;;0.00;0.00;;;12.20;95.70;;;;;;5064534;28;20040;-81
2023/05/10 21:29:12;;;;;;;0.10;0.10;;;12.30;95.40;;;;;;5052886;28;20044;-82
2023/05/10 21:31:38;;;;;;;1.45;0.80;;;12.30;95.20;;;;;;5054215;28;20021;-81
2023/05/10 21:34:03;;;;;;;0.10;0.10;;;12.30;95.10;;;;;;5061939;28;20074;-81
2023/05/10 21:36:29;;;;;;;0.00;0.00;;;12.10;95.10;;;;;;5052299;28;20071;-81